SAN weather

San Diego International Airport
San Diego, California, United States

Public forecast

Using degrees Fahrenheit for public forecast. Weather courtesy of forecast.io.

Current aviation weather report (METAR) for San Diego International Airport

Retrieved 2020/01/23 09:51 UTC (43 minutes ago):

KSAN 230951Z 30003KT 10SM CLR 12/11 A3014 RMK AO2 SLP205 T01220106

Aviation forecast (TAF) for San Diego International Airport

Retrieved 2020/01/23 06:22 UTC (4 hours ago):

TAF KSAN 230520Z 2306/2412 VRB04KT P6SM SKC FM232100 29008KT P6SM SKC FM240100 VRB04KT P6SM SKC